createdAt,value
2017-05-11T00:00:23.570Z,63.20
2017-05-11T00:02:52.625Z,64.00
2017-05-11T00:05:21.670Z,64.10
2017-05-11T00:07:50.740Z,64.50
2017-05-11T00:10:20.529Z,64.10
2017-05-11T00:12:49.585Z,64.80
2017-05-11T00:15:18.617Z,64.90
2017-05-11T00:17:47.677Z,65.30
2017-05-11T00:20:16.825Z,65.70
2017-05-11T00:22:46.625Z,67.00
2017-05-11T00:25:15.673Z,66.20
2017-05-11T00:27:44.716Z,66.20
2017-05-11T00:30:13.778Z,66.40
2017-05-11T00:32:42.914Z,66.80
2017-05-11T00:35:11.978Z,66.90
2017-05-11T00:37:41.018Z,67.90
2017-05-11T00:40:10.822Z,67.50
2017-05-11T00:42:40.603Z,68.70
2017-05-11T00:45:09.642Z,68.90
2017-05-11T00:47:38.673Z,69.80
2017-05-11T00:50:07.733Z,69.30
2017-05-11T00:52:37.503Z,68.40
2017-05-11T00:55:06.561Z,69.50
2017-05-11T00:57:36.118Z,70.00
2017-05-11T01:00:05.948Z,70.00
2017-05-11T01:02:35.725Z,70.50
2017-05-11T01:05:04.848Z,70.80
2017-05-11T01:07:34.651Z,70.00
2017-05-11T01:10:03.746Z,71.00
2017-05-11T01:12:33.546Z,71.50
2017-05-11T01:15:02.581Z,71.40
2017-05-11T01:17:31.632Z,71.60
2017-05-11T01:20:00.668Z,71.70
2017-05-11T01:22:31.235Z,71.80
2017-05-11T01:25:00.480Z,72.20
2017-05-11T01:27:29.507Z,72.00
2017-05-11T01:29:58.570Z,72.70
2017-05-11T01:32:28.349Z,72.90
2017-05-11T01:34:57.383Z,73.40
2017-05-11T01:37:26.455Z,73.60
2017-05-11T01:39:55.502Z,73.90
2017-05-11T01:42:24.653Z,74.40
2017-05-11T01:44:54.425Z,74.70
2017-05-11T01:47:23.479Z,75.20
2017-05-11T01:49:52.507Z,75.40
2017-05-11T01:52:21.553Z,75.80
2017-05-11T01:54:50.633Z,76.20
2017-05-11T01:57:19.677Z,76.50
2017-05-11T01:59:48.714Z,76.50
2017-05-11T02:02:18.512Z,77.00
2017-05-11T02:04:47.630Z,77.00
2017-05-11T02:07:17.416Z,77.40
2017-05-11T02:09:50.409Z,77.20
2017-05-11T02:12:19.467Z,77.60
2017-05-11T02:14:48.525Z,77.80
2017-05-11T02:17:30.303Z,78.30
2017-05-11T02:20:17.184Z,78.50
2017-05-11T02:22:52.086Z,79.00
2017-05-11T02:25:21.149Z,79.00
2017-05-11T02:27:50.913Z,79.60
2017-05-11T02:30:19.954Z,79.70
2017-05-11T02:32:49.745Z,79.80
2017-05-11T02:35:18.778Z,80.10
2017-05-11T02:37:47.837Z,80.20
2017-05-11T02:40:16.865Z,80.50
2017-05-11T02:42:45.897Z,80.80
2017-05-11T02:45:14.949Z,80.90
2017-05-11T02:47:44.013Z,81.20
2017-05-11T02:50:13.066Z,81.70
2017-05-11T02:52:42.114Z,81.80
2017-05-11T02:55:11.173Z,82.00
2017-05-11T02:57:40.561Z,82.20
2017-05-11T03:00:09.720Z,82.30
2017-05-11T03:02:38.757Z,82.60
2017-05-11T03:05:07.793Z,82.80
2017-05-11T03:07:37.585Z,82.80
2017-05-11T03:10:06.699Z,82.60
2017-05-11T03:12:35.755Z,83.00
2017-05-11T03:15:04.781Z,83.10
2017-05-11T03:17:33.826Z,83.40
2017-05-11T03:20:02.870Z,83.60
2017-05-11T03:22:31.902Z,83.80
2017-05-11T03:25:01.062Z,83.70
2017-05-11T03:27:30.091Z,83.80
2017-05-11T03:29:59.169Z,83.60
2017-05-11T03:32:28.207Z,84.70
2017-05-11T03:34:57.233Z,84.30
2017-05-11T03:37:26.290Z,84.60
2017-05-11T03:39:55.337Z,85.00
2017-05-11T03:42:25.135Z,85.30
2017-05-11T03:44:54.224Z,85.00
2017-05-11T03:47:23.306Z,85.30
2017-05-11T03:49:52.338Z,84.90
2017-05-11T03:52:22.114Z,85.20
2017-05-11T03:54:51.158Z,85.50
2017-05-11T03:57:20.192Z,85.70
2017-05-11T03:59:49.257Z,85.80
2017-05-11T04:02:18.290Z,85.70
2017-05-11T04:04:47.353Z,85.70
2017-05-11T04:07:16.398Z,85.60
2017-05-11T04:09:46.206Z,85.40
2017-05-11T04:12:15.261Z,85.50
2017-05-11T04:14:44.299Z,85.60
2017-05-11T04:17:14.099Z,85.80
2017-05-11T04:19:43.142Z,85.80
2017-05-11T04:22:12.198Z,85.90
2017-05-11T04:24:41.289Z,85.40
2017-05-11T04:27:10.317Z,85.30
2017-05-11T04:29:39.361Z,85.20
2017-05-11T04:32:08.468Z,85.50
2017-05-11T04:34:37.561Z,84.80
2017-05-11T04:37:06.586Z,84.70
2017-05-11T04:39:35.633Z,84.60
2017-05-11T04:42:04.681Z,84.30
2017-05-11T04:44:33.750Z,84.50
2017-05-11T04:47:03.514Z,84.00
2017-05-11T04:49:32.576Z,84.00
2017-05-11T04:52:02.342Z,83.90
2017-05-11T04:54:31.385Z,83.50
2017-05-11T04:57:00.442Z,83.40
2017-05-11T04:59:29.482Z,83.20
2017-05-11T05:01:58.522Z,83.70
2017-05-11T05:04:27.569Z,83.10
2017-05-11T05:06:56.601Z,82.60
2017-05-11T05:09:25.666Z,82.50
2017-05-11T05:11:54.697Z,82.60
2017-05-11T05:14:23.826Z,82.50
2017-05-11T05:16:53.604Z,81.90
2017-05-11T05:19:22.725Z,81.60
2017-05-11T05:21:52.526Z,81.50
2017-05-11T05:24:21.619Z,81.00
2017-05-11T05:26:50.706Z,80.70
2017-05-11T05:29:19.823Z,80.10
2017-05-11T05:31:48.853Z,79.70
2017-05-11T05:34:17.889Z,79.40
2017-05-11T05:36:46.976Z,79.30
2017-05-11T05:39:16.014Z,78.70
2017-05-11T05:41:45.055Z,78.20
2017-05-11T05:44:14.128Z,78.10
2017-05-11T05:46:43.164Z,77.40
2017-05-11T05:49:12.998Z,76.90
2017-05-11T05:51:42.776Z,75.10
2017-05-11T05:54:11.849Z,75.80
2017-05-11T05:56:40.890Z,74.70
2017-05-11T05:59:10.674Z,74.30
2017-05-11T06:01:39.806Z,73.90
2017-05-11T06:04:09.599Z,73.60
2017-05-11T06:06:39.394Z,74.10
2017-05-11T06:09:08.637Z,72.10
2017-05-11T06:11:37.699Z,73.30
2017-05-11T06:14:07.482Z,72.20
2017-05-11T06:16:36.525Z,71.50
2017-05-11T06:19:05.585Z,70.90
2017-05-11T06:21:34.630Z,70.00
2017-05-11T06:24:03.690Z,69.80
2017-05-11T06:26:33.499Z,69.00
2017-05-11T06:29:03.327Z,68.30
2017-05-11T06:31:32.423Z,66.40
2017-05-11T06:34:02.206Z,66.30
2017-05-11T06:36:31.331Z,66.10
2017-05-11T06:39:00.370Z,65.20
2017-05-11T06:41:29.445Z,65.00
2017-05-11T06:43:58.484Z,64.20
2017-05-11T06:46:27.594Z,64.00
2017-05-11T06:48:57.382Z,62.70
2017-05-11T06:51:26.951Z,63.00
2017-05-11T06:53:55.991Z,61.70
2017-05-11T06:56:25.035Z,59.80
2017-05-11T06:58:54.089Z,59.80
2017-05-11T07:01:23.888Z,59.90
2017-05-11T07:03:53.011Z,59.00
2017-05-11T07:06:22.034Z,58.90
2017-05-11T07:08:51.202Z,58.30
2017-05-11T07:11:20.238Z,58.50
2017-05-11T07:13:49.278Z,57.10
2017-05-11T07:16:19.077Z,56.10
2017-05-11T07:18:48.121Z,56.10
2017-05-11T07:21:17.178Z,56.20
2017-05-11T07:23:46.958Z,55.70
2017-05-11T07:26:16.042Z,55.10
2017-05-11T07:28:45.084Z,55.00
2017-05-11T07:31:14.865Z,54.00
2017-05-11T07:33:43.999Z,53.10
2017-05-11T07:36:13.756Z,53.10
2017-05-11T07:38:42.822Z,51.90
2017-05-11T07:41:11.885Z,52.00
2017-05-11T07:43:40.942Z,52.00
2017-05-11T07:46:09.976Z,51.30
2017-05-11T07:48:39.770Z,50.60
2017-05-11T07:51:08.827Z,50.30
2017-05-11T07:53:37.869Z,49.60
2017-05-11T07:56:07.669Z,48.80
2017-05-11T07:58:36.800Z,48.10
2017-05-11T08:01:06.586Z,47.40
2017-05-11T08:03:35.618Z,45.90
2017-05-11T08:06:04.646Z,43.10
2017-05-11T08:08:33.697Z,41.80
2017-05-11T08:11:02.717Z,40.80
2017-05-11T08:13:31.759Z,39.90
2017-05-11T08:16:00.821Z,38.90
2017-05-11T08:18:29.876Z,38.00
2017-05-11T08:20:58.902Z,37.80
2017-05-11T08:23:27.960Z,36.60
2017-05-11T08:25:57.010Z,35.20
2017-05-11T08:28:26.034Z,34.30
2017-05-11T08:30:55.822Z,34.00
2017-05-11T08:33:24.871Z,34.30
2017-05-11T08:35:53.926Z,33.50
2017-05-11T08:38:23.705Z,33.50
2017-05-11T08:40:52.746Z,34.10
2017-05-11T08:43:22.520Z,35.30
2017-05-11T08:45:51.554Z,35.80
2017-05-11T08:48:20.606Z,36.10
2017-05-11T08:50:49.629Z,35.80
2017-05-11T08:53:19.421Z,35.70
2017-05-11T08:55:48.478Z,36.00
2017-05-11T08:58:17.511Z,36.80
2017-05-11T09:00:46.558Z,36.00
2017-05-11T09:03:15.592Z,35.50
2017-05-11T09:05:44.765Z,36.30
2017-05-11T09:08:13.792Z,35.70
2017-05-11T09:10:42.846Z,35.10
2017-05-11T09:13:11.915Z,35.70
2017-05-11T09:15:40.977Z,35.40
2017-05-11T09:18:09.995Z,33.90
2017-05-11T09:20:39.052Z,34.30
2017-05-11T09:23:08.090Z,35.50
2017-05-11T09:25:37.119Z,36.50
2017-05-11T09:28:06.264Z,35.60
2017-05-11T09:30:35.274Z,33.70
2017-05-11T09:33:04.310Z,33.50
2017-05-11T09:35:33.355Z,33.00
2017-05-11T09:38:02.382Z,31.70
2017-05-11T09:40:31.533Z,31.10
2017-05-11T09:43:00.543Z,31.50
2017-05-11T09:45:29.598Z,31.90
2017-05-11T09:47:58.624Z,32.60
2017-05-11T09:50:27.649Z,33.30
2017-05-11T09:52:56.691Z,35.00
2017-05-11T09:55:26.458Z,34.20
2017-05-11T09:57:55.517Z,33.40
2017-05-11T10:00:24.538Z,34.30
2017-05-11T10:02:53.579Z,35.40
2017-05-11T10:05:22.645Z,36.50
2017-05-11T10:07:51.717Z,36.30
2017-05-11T10:10:21.465Z,35.10
2017-05-11T10:12:50.486Z,35.40
2017-05-11T10:15:20.280Z,34.00
2017-05-11T10:17:49.394Z,31.20
2017-05-11T10:20:18.397Z,29.90
2017-05-11T10:22:47.442Z,30.90
2017-05-11T10:25:16.538Z,29.90
2017-05-11T10:27:45.595Z,29.90
2017-05-11T10:30:14.617Z,29.50
2017-05-11T10:32:43.670Z,29.10
2017-05-11T10:35:12.689Z,29.10
2017-05-11T10:37:41.729Z,28.90
2017-05-11T10:40:10.766Z,31.20
2017-05-11T10:42:39.797Z,33.90
2017-05-11T10:45:08.846Z,34.60
2017-05-11T10:47:37.872Z,34.30
2017-05-11T10:50:06.925Z,34.00
2017-05-11T10:52:35.960Z,33.30
2017-05-11T10:55:04.990Z,31.60
2017-05-11T10:57:34.775Z,30.00
2017-05-11T11:00:03.803Z,31.60
2017-05-11T11:02:33.714Z,31.30
2017-05-11T11:05:03.489Z,32.70
2017-05-11T11:07:32.556Z,33.80
2017-05-11T11:10:01.590Z,31.90
2017-05-11T11:12:30.649Z,30.60
2017-05-11T11:14:59.682Z,30.40
2017-05-11T11:17:28.710Z,31.70
2017-05-11T11:19:57.753Z,32.80
2017-05-11T11:22:26.781Z,32.00
2017-05-11T11:24:56.592Z,31.30
2017-05-11T11:27:26.361Z,32.50
2017-05-11T11:29:55.402Z,32.90
2017-05-11T11:32:25.178Z,32.60
2017-05-11T11:34:54.217Z,31.50
2017-05-11T11:37:23.246Z,30.10
2017-05-11T11:39:52.290Z,29.00
2017-05-11T11:42:22.056Z,28.60
2017-05-11T11:44:51.133Z,27.40
2017-05-11T11:47:20.188Z,26.20
2017-05-11T11:49:49.214Z,25.70
2017-05-11T11:52:18.245Z,25.20
2017-05-11T11:54:47.301Z,25.90
2017-05-11T11:57:16.366Z,27.30
2017-05-11T11:59:45.398Z,30.50
2017-05-11T12:02:14.441Z,32.10
2017-05-11T12:04:43.532Z,33.90
2017-05-11T12:07:12.555Z,33.10
2017-05-11T12:09:41.594Z,29.60
2017-05-11T12:12:10.642Z,28.50
2017-05-11T12:14:39.700Z,30.90
2017-05-11T12:17:08.739Z,30.80
2017-05-11T12:19:37.790Z,31.70
2017-05-11T12:22:06.860Z,33.50
2017-05-11T12:24:35.922Z,34.90
2017-05-11T12:27:04.954Z,36.60
2017-05-11T12:29:33.998Z,37.60
2017-05-11T12:32:03.081Z,38.00
2017-05-11T12:34:32.112Z,33.40
2017-05-11T12:37:01.133Z,30.70
2017-05-11T12:39:30.203Z,29.20
2017-05-11T12:41:59.220Z,28.80
2017-05-11T12:44:28.276Z,28.20
2017-05-11T12:46:57.295Z,30.30
2017-05-11T12:49:26.348Z,30.60
2017-05-11T12:51:55.373Z,30.80
2017-05-11T12:54:24.457Z,30.30
2017-05-11T12:56:53.468Z,28.70
2017-05-11T12:59:22.493Z,27.50
2017-05-11T13:01:51.541Z,26.80
2017-05-11T13:04:20.557Z,25.90
2017-05-11T13:06:49.605Z,24.60
2017-05-11T13:09:18.631Z,23.10
2017-05-11T13:11:47.793Z,23.20
2017-05-11T13:14:17.581Z,24.60
2017-05-11T13:16:46.654Z,25.70
2017-05-11T13:19:15.662Z,28.00
2017-05-11T13:21:44.718Z,30.70
2017-05-11T13:24:13.768Z,30.80
2017-05-11T13:26:42.816Z,29.90
2017-05-11T13:29:11.860Z,28.50
2017-05-11T13:31:40.887Z,26.80
2017-05-11T13:34:09.944Z,26.90
2017-05-11T13:36:38.969Z,26.90
2017-05-11T13:39:07.990Z,25.30
2017-05-11T13:41:37.029Z,22.90
2017-05-11T13:44:06.805Z,24.20
2017-05-11T13:46:35.844Z,27.10
2017-05-11T13:49:04.871Z,28.20
2017-05-11T13:51:33.934Z,28.10
2017-05-11T13:54:02.965Z,28.40
2017-05-11T13:56:32.022Z,30.40
2017-05-11T13:59:01.926Z,31.70
2017-05-11T14:01:30.943Z,33.00
2017-05-11T14:04:00.036Z,32.10
2017-05-11T14:06:29.069Z,30.20
2017-05-11T14:08:58.194Z,28.40
2017-05-11T14:11:27.225Z,27.30
2017-05-11T14:13:56.256Z,26.30
2017-05-11T14:16:25.281Z,26.20
2017-05-11T14:18:55.060Z,27.50
2017-05-11T14:21:24.114Z,28.70
2017-05-11T14:23:53.162Z,30.00
2017-05-11T14:26:25.040Z,29.50
2017-05-11T14:28:54.976Z,29.00
2017-05-11T14:31:23.999Z,28.10
2017-05-11T14:33:53.032Z,28.00
2017-05-11T14:36:22.909Z,27.30
2017-05-11T14:38:51.955Z,26.60
2017-05-11T14:41:21.725Z,26.70
2017-05-11T14:43:50.789Z,26.90
2017-05-11T14:46:19.822Z,26.10
2017-05-11T14:48:48.889Z,24.40
2017-05-11T14:51:17.927Z,23.90
2017-05-11T14:53:47.714Z,24.90
2017-05-11T14:56:16.757Z,25.70
2017-05-11T14:58:45.806Z,24.80
2017-05-11T15:01:14.851Z,24.20
2017-05-11T15:03:43.897Z,25.60
2017-05-11T15:06:12.975Z,26.70
2017-05-11T15:08:42.024Z,26.30
2017-05-11T15:11:11.071Z,27.00
2017-05-11T15:13:40.115Z,27.10
2017-05-11T15:16:09.162Z,28.10
2017-05-11T15:18:38.205Z,28.60
2017-05-11T15:21:07.233Z,30.40
2017-05-11T15:23:36.277Z,32.10
2017-05-11T15:26:06.060Z,32.60
2017-05-11T15:28:35.100Z,34.00
2017-05-11T15:31:04.145Z,34.40
2017-05-11T15:33:33.187Z,34.40
2017-05-11T15:36:02.216Z,34.80
2017-05-11T15:38:31.266Z,35.20
2017-05-11T15:41:00.298Z,35.30
2017-05-11T15:43:29.362Z,35.50
2017-05-11T15:45:58.402Z,35.40
2017-05-11T15:48:27.452Z,35.50
2017-05-11T15:50:56.489Z,36.00
2017-05-11T15:53:25.525Z,36.00
2017-05-11T15:55:55.321Z,36.20
2017-05-11T15:58:25.094Z,36.80
2017-05-11T16:00:54.121Z,36.40
2017-05-11T16:03:23.886Z,36.50
2017-05-11T16:05:52.929Z,36.50
2017-05-11T16:08:22.690Z,36.60
2017-05-11T16:10:51.738Z,35.60
2017-05-11T16:13:21.502Z,34.90
2017-05-11T16:15:50.547Z,35.30
2017-05-11T16:18:25.416Z,35.50
2017-05-11T16:20:58.363Z,35.80
2017-05-11T16:23:28.428Z,36.60
2017-05-11T16:25:57.470Z,37.40
2017-05-11T16:28:27.244Z,38.00
2017-05-11T16:30:56.721Z,37.90
2017-05-11T16:33:25.753Z,37.80
2017-05-11T16:35:54.792Z,38.30
2017-05-11T16:38:23.837Z,38.80
2017-05-11T16:40:52.887Z,39.00
2017-05-11T16:43:21.932Z,39.50
2017-05-11T16:45:50.974Z,39.60
2017-05-11T16:48:20.014Z,40.00
2017-05-11T16:50:49.111Z,40.20
2017-05-11T16:53:18.899Z,40.70
2017-05-11T16:55:47.981Z,41.10
2017-05-11T16:58:17.022Z,40.80
2017-05-11T17:00:46.057Z,40.50
2017-05-11T17:03:15.086Z,40.50
2017-05-11T17:05:44.146Z,40.70
2017-05-11T17:08:13.267Z,41.10
2017-05-11T17:10:42.399Z,41.00
2017-05-11T17:13:11.447Z,41.00
2017-05-11T17:15:40.544Z,40.90
2017-05-11T17:18:09.581Z,40.50
2017-05-11T17:20:39.379Z,40.70
2017-05-11T17:23:08.406Z,40.70
2017-05-11T17:25:38.184Z,40.50
2017-05-11T17:28:07.210Z,40.50
2017-05-11T17:30:37.008Z,40.80
2017-05-11T17:33:06.781Z,40.90
2017-05-11T17:35:35.819Z,41.00
2017-05-11T17:38:05.597Z,40.90
2017-05-11T17:40:34.641Z,41.30
2017-05-11T17:43:03.692Z,41.70
2017-05-11T17:45:32.744Z,41.60
2017-05-11T17:48:01.781Z,42.00
2017-05-11T17:50:30.838Z,42.20
2017-05-11T17:52:59.926Z,42.60
2017-05-11T17:55:29.097Z,42.90
2017-05-11T17:57:58.892Z,43.40
2017-05-11T18:00:27.988Z,43.50
2017-05-11T18:02:57.143Z,44.10
2017-05-11T18:05:26.277Z,44.60
2017-05-11T18:07:55.315Z,44.50
2017-05-11T18:10:24.421Z,44.30
2017-05-11T18:12:53.457Z,44.40
2017-05-11T18:15:22.564Z,44.20
2017-05-11T18:17:52.353Z,44.10
2017-05-11T18:20:21.373Z,44.30
2017-05-11T18:22:51.185Z,44.30
2017-05-11T18:25:20.973Z,45.40
2017-05-11T18:27:50.041Z,44.70
2017-05-11T18:30:19.067Z,44.80
2017-05-11T18:32:48.177Z,44.90
2017-05-11T18:35:17.273Z,45.10
2017-05-11T18:37:46.332Z,45.10
2017-05-11T18:40:15.437Z,45.20
2017-05-11T18:42:44.485Z,45.00
2017-05-11T18:45:13.516Z,46.60
2017-05-11T18:47:42.581Z,47.90
2017-05-11T18:50:11.605Z,48.70
2017-05-11T18:52:41.490Z,49.50
2017-05-11T18:55:10.530Z,49.60
2017-05-11T18:57:39.638Z,50.00
2017-05-11T19:00:09.530Z,50.10
2017-05-11T19:02:38.609Z,49.60
2017-05-11T19:05:08.475Z,49.50
2017-05-11T19:07:38.282Z,49.30
2017-05-11T19:10:07.939Z,49.50
2017-05-11T19:12:38.114Z,49.50
2017-05-11T19:15:07.944Z,50.10
2017-05-11T19:17:36.983Z,50.30
2017-05-11T19:20:06.041Z,49.80
2017-05-11T19:22:35.102Z,49.80
2017-05-11T19:25:04.984Z,49.30
2017-05-11T19:27:34.061Z,49.80
2017-05-11T19:30:03.173Z,50.10
2017-05-11T19:32:32.258Z,50.60
2017-05-11T19:35:01.329Z,51.60
2017-05-11T19:37:30.525Z,52.00
2017-05-11T19:39:59.553Z,52.50
2017-05-11T19:42:28.823Z,52.90
2017-05-11T19:44:57.966Z,54.50
2017-05-11T19:47:26.997Z,54.80
2017-05-11T19:49:56.066Z,55.20
2017-05-11T19:52:25.863Z,55.90
2017-05-11T19:54:54.899Z,56.50
2017-05-11T19:57:23.949Z,57.10
2017-05-11T19:59:52.998Z,57.70
2017-05-11T20:02:22.030Z,58.40
2017-05-11T20:04:51.082Z,58.50
2017-05-11T20:07:20.110Z,59.20
2017-05-11T20:09:49.156Z,59.40
2017-05-11T20:12:18.190Z,60.30
2017-05-11T20:14:47.273Z,60.50
2017-05-11T20:17:16.310Z,60.40
2017-05-11T20:19:45.381Z,60.50
2017-05-11T20:22:14.517Z,61.00
2017-05-11T20:24:44.315Z,61.10
2017-05-11T20:27:14.090Z,62.00
2017-05-11T20:29:43.107Z,61.80
2017-05-11T20:32:12.149Z,62.00
2017-05-11T20:34:41.195Z,62.60
2017-05-11T20:37:10.248Z,62.70
2017-05-11T20:39:39.283Z,62.60
2017-05-11T20:42:08.338Z,62.30
2017-05-11T20:44:37.392Z,62.90
2017-05-11T20:47:07.482Z,63.00
2017-05-11T20:49:36.611Z,63.10
2017-05-11T20:52:05.669Z,63.20
2017-05-11T20:54:34.749Z,63.50
2017-05-11T20:57:03.782Z,63.90
2017-05-11T20:59:33.606Z,64.70
2017-05-11T21:02:02.666Z,64.60
2017-05-11T21:04:31.740Z,65.10
2017-05-11T21:07:00.783Z,65.20
2017-05-11T21:09:30.614Z,63.00
2017-05-11T21:11:59.664Z,61.90
2017-05-11T21:14:28.717Z,60.90
2017-05-11T21:16:57.770Z,60.70
2017-05-11T21:19:26.793Z,60.80
2017-05-11T21:21:55.827Z,60.70
2017-05-11T21:24:24.870Z,61.10
2017-05-11T21:26:53.897Z,60.50
2017-05-11T21:29:22.942Z,61.00
2017-05-11T21:31:52.717Z,59.70
2017-05-11T21:34:21.783Z,60.00
2017-05-11T21:36:50.886Z,59.70
2017-05-11T21:39:19.945Z,59.30
2017-05-11T21:41:49.029Z,58.90
2017-05-11T21:44:18.063Z,59.20
2017-05-11T21:46:47.086Z,59.30
2017-05-11T21:49:16.137Z,59.00
2017-05-11T21:51:45.180Z,59.00
2017-05-11T21:54:14.214Z,58.70
2017-05-11T21:56:43.279Z,59.10
2017-05-11T21:59:12.313Z,58.70
2017-05-11T22:01:41.346Z,58.80
2017-05-11T22:04:10.408Z,58.20
2017-05-11T22:06:39.446Z,58.50
2017-05-11T22:09:08.495Z,58.80
2017-05-11T22:11:37.532Z,58.30
2017-05-11T22:14:06.577Z,57.90
2017-05-11T22:16:35.613Z,58.10
2017-05-11T22:19:04.656Z,58.20
2017-05-11T22:21:33.690Z,58.10
2017-05-11T22:24:02.889Z,58.30
2017-05-11T22:26:31.959Z,58.20
2017-05-11T22:29:01.024Z,58.20
2017-05-11T22:31:30.787Z,58.40
2017-05-11T22:33:59.834Z,58.10
2017-05-11T22:36:28.861Z,58.20
2017-05-11T22:38:57.912Z,58.40
2017-05-11T22:41:27.689Z,58.70
2017-05-11T22:43:56.762Z,58.70
2017-05-11T22:46:25.797Z,59.00
2017-05-11T22:48:54.845Z,59.20
2017-05-11T22:51:23.895Z,59.90
2017-05-11T22:53:53.687Z,60.50
2017-05-11T22:56:22.710Z,60.50
2017-05-11T22:58:51.763Z,60.70
2017-05-11T23:01:20.791Z,60.50
2017-05-11T23:03:50.582Z,60.70
2017-05-11T23:06:19.609Z,60.20
2017-05-11T23:08:48.782Z,60.40
2017-05-11T23:11:17.801Z,60.50
2017-05-11T23:13:46.881Z,60.80
2017-05-11T23:16:16.638Z,60.90
2017-05-11T23:18:45.693Z,60.40
2017-05-11T23:21:14.747Z,60.50
2017-05-11T23:23:43.794Z,60.20
2017-05-11T23:26:12.809Z,60.00
2017-05-11T23:28:41.856Z,60.10
2017-05-11T23:31:11.633Z,60.30
2017-05-11T23:33:40.680Z,60.00
2017-05-11T23:36:09.725Z,60.10
2017-05-11T23:38:38.747Z,60.30
2017-05-11T23:41:08.524Z,60.10
2017-05-11T23:43:37.655Z,60.80
2017-05-11T23:46:06.687Z,60.40
2017-05-11T23:48:35.741Z,60.70
2017-05-11T23:51:04.778Z,61.20
2017-05-11T23:53:33.794Z,61.30
2017-05-11T23:56:02.839Z,61.60
2017-05-11T23:58:31.866Z,62.00
